Aérodrome :
LOGIN :

S'inscrire | Disclaimer

   EN    FR    IT 

 










Légende :    VFR   VFR Marginal   IFR   IFR Intensif   IFR Très Intensif
Visi : 
Plafond : 
>= 8 km
>= 3000ft
5 à 8 km
1000 à 3000 ft
1500m à 5 km
500 à 1000 ft
800 à 1500m
200 à 500 ft
< 800m
< 200 ft
Symboles :   Orages  Brouillard  Fortes neiges  Fortes précipitations  Vent > 20 kt
SIGMETs :   Divers  Orages  Givrage  Turbulence  Onde Orograph.  Cendres Volcan.






- Altitude de l'aérodrome : 782 ft
- Code IATA : BGY


LIME - Orio al Serio International - Bergamo

DERNIER METAR :
  • 031950Z 01011KT 350V050 8000 FEW020CB BKN050 17/13 Q1006 RETS NOSIG

METARs EXPIRÉS :
  • 031920Z 02009KT 8000 -TSRA FEW025CB BKN040 16/14 Q1006 NOSIG
  • 031850Z 35007KT 310V020 6000 -TSRA FEW025CB BKN040 16/14 Q1007 NOSIG
  • 031820Z 30008KT 6000 -TSRA FEW025CB BKN040 17/14 Q1007 RERA NOSIG
  • 031750Z 23017KT 6000 TSRA FEW020CB BKN040 17/14 Q1006 NOSIG
  • 031720Z 24015G27KT 9999 TSRA FEW025CB SCT040 21/15 Q1005 NOSIG

TAF TAF LIME
Valide du 03 à 18h jusqu'au 04 à 18h UTC


031700Z 0318/0418 VRB05KT 9999 FEW040
TEMPO 0318/0402 TSRA
TEMPO 0409/0412 RA



MET'MAP, la Météo Aéronautique d'un coup d'oeil ! - Copyright ORBIFLY Décembre 2007 - Disclaimer

ORBIFLY MET'MAP TEAM :

Programmation & Développement : Alexandra Zaïnal
Sur une idée originale de : Baudouin d'Aumeries
Assistance à la programmation : Marc-Olivier Méhu
Soutien technique & logistique : Manuel Goepfert

Contact : metmap@orbifly.com




SOURCES & CREDITS :

   NOAA